Time,TemperatureF,DewpointF,PressureIn,WindDirection,WindDirectionDegrees,WindSpeedMPH,WindSpeedGustMPH,Humidity,HourlyPrecipIn,Conditions,Clouds,dailyrainin,SolarRadiationWatts/m^2,SoftwareType,DateUTC
2013-03-31 00:22:00,36.0,29.0,-100.00,East,98,2.0,6.0,77,0.00,,,0.05,0.000000,,2013-03-31 08:22:00,
2013-03-31 00:32:00,36.0,29.0,-100.00,East,98,2.0,6.0,77,0.00,,,0.05,0.000000,,2013-03-31 08:32:00,
2013-03-31 00:42:00,36.0,29.0,-100.00,East,98,2.0,6.0,77,0.00,,,0.05,0.000000,,2013-03-31 08:42:00,
2013-03-31 00:52:00,36.0,29.0,-100.00,East,98,2.0,6.0,77,0.00,,,0.05,0.000000,,2013-03-31 08:52:00,
2013-03-31 01:12:00,32.0,29.0,-100.00,NW,313,0.0,2.0,88,0.00,,,0.05,0.000000,,2013-03-31 09:12:00,
2013-03-31 01:22:00,32.0,29.0,-100.00,NW,313,0.0,2.0,88,0.00,,,0.05,0.000000,,2013-03-31 09:22:00,
2013-03-31 01:32:00,32.0,29.0,-100.00,NW,313,0.0,2.0,88,0.00,,,0.05,0.000000,,2013-03-31 09:32:00,
2013-03-31 01:42:00,32.0,29.0,-100.00,NW,313,0.0,2.0,88,0.00,,,0.05,0.000000,,2013-03-31 09:42:00,
2013-03-31 01:52:00,32.0,29.0,-100.00,NW,313,0.0,2.0,88,0.00,,,0.05,0.000000,,2013-03-31 09:52:00,
2013-03-31 02:13:00,29.0,29.0,-100.00,NNE,33,0.0,0.0,100,0.00,,,0.05,0.000000,,2013-03-31 10:13:00,
2013-03-31 02:23:00,29.0,29.0,-100.00,NNE,33,0.0,0.0,100,0.00,,,0.05,0.000000,,2013-03-31 10:23:00,
2013-03-31 02:32:00,29.0,29.0,-100.00,NNE,33,0.0,0.0,100,0.00,,,0.05,0.000000,,2013-03-31 10:32:00,
2013-03-31 02:42:00,29.0,29.0,-100.00,NNE,33,0.0,0.0,100,0.00,,,0.05,0.000000,,2013-03-31 10:42:00,
2013-03-31 02:52:00,29.0,29.0,-100.00,NNE,33,0.0,0.0,100,0.00,,,0.05,0.000000,,2013-03-31 10:52:00,
2013-03-31 03:12:00,28.0,28.0,-100.00,SE,142,0.0,1.0,100,0.00,,,0.05,0.000000,,2013-03-31 11:12:00,
2013-03-31 03:22:00,28.0,28.0,-100.00,SE,142,0.0,1.0,100,0.00,,,0.05,0.000000,,2013-03-31 11:22:00,
2013-03-31 03:32:00,28.0,28.0,-100.00,SE,142,0.0,1.0,100,0.00,,,0.05,0.000000,,2013-03-31 11:32:00,
2013-03-31 03:42:00,28.0,28.0,-100.00,SE,142,0.0,1.0,100,0.00,,,0.05,0.000000,,2013-03-31 11:42:00,
2013-03-31 03:51:00,28.0,28.0,-100.00,SE,142,0.0,1.0,100,0.00,,,0.05,0.000000,,2013-03-31 11:51:00,
2013-03-31 04:22:00,29.0,29.0,-100.00,NNE,27,0.0,2.0,100,0.00,,,0.05,0.000000,,2013-03-31 12:22:00,
2013-03-31 04:32:00,29.0,29.0,-100.00,NNE,27,0.0,2.0,100,0.00,,,0.05,0.000000,,2013-03-31 12:32:00,
2013-03-31 04:42:00,29.0,29.0,-100.00,NNE,27,0.0,2.0,100,0.00,,,0.05,0.000000,,2013-03-31 12:42:00,
2013-03-31 04:52:00,29.0,29.0,-100.00,NNE,27,0.0,2.0,100,0.00,,,0.05,0.000000,,2013-03-31 12:52:00,
2013-03-31 05:12:00,28.0,28.0,-100.00,NE,45,0.0,3.0,99,0.00,,,0.05,0.000000,,2013-03-31 13:12:00,
2013-03-31 05:22:00,28.0,28.0,-100.00,NE,45,0.0,3.0,99,0.00,,,0.05,0.000000,,2013-03-31 13:22:00,
2013-03-31 05:32:00,28.0,28.0,-100.00,NE,45,0.0,3.0,99,0.00,,,0.05,0.000000,,2013-03-31 13:32:00,
2013-03-31 05:42:00,28.0,28.0,-100.00,NE,45,0.0,3.0,99,0.00,,,0.05,0.000000,,2013-03-31 13:42:00,
2013-03-31 05:52:00,28.0,28.0,-100.00,NE,45,0.0,3.0,99,0.00,,,0.05,0.000000,,2013-03-31 13:52:00,
2013-03-31 06:12:00,26.0,26.0,-100.00,NNE,22,0.0,1.0,100,0.00,,,0.05,0.000000,,2013-03-31 14:12:00,
2013-03-31 06:22:00,26.0,26.0,-100.00,NNE,22,0.0,1.0,100,0.00,,,0.05,0.000000,,2013-03-31 14:22:00,
2013-03-31 06:32:00,26.0,26.0,-100.00,NNE,22,0.0,1.0,100,0.00,,,0.05,0.000000,,2013-03-31 14:32:00,
2013-03-31 06:42:00,26.0,26.0,-100.00,NNE,22,0.0,1.0,100,0.00,,,0.05,0.000000,,2013-03-31 14:42:00,
2013-03-31 06:51:00,26.0,26.0,-100.00,NNE,22,0.0,1.0,100,0.00,,,0.05,0.000000,,2013-03-31 14:51:00,
2013-03-31 07:12:00,26.0,26.0,-100.00,NW,320,0.0,0.0,100,0.00,,,0.05,0.000000,,2013-03-31 15:12:00,
2013-03-31 07:22:00,26.0,26.0,-100.00,NW,320,0.0,0.0,100,0.00,,,0.05,0.000000,,2013-03-31 15:22:00,
2013-03-31 07:33:00,26.0,26.0,-100.00,NW,320,0.0,0.0,100,0.00,,,0.05,0.000000,,2013-03-31 15:33:00,
2013-03-31 07:43:00,26.0,26.0,-100.00,NW,320,0.0,0.0,100,0.00,,,0.05,0.000000,,2013-03-31 15:43:00,
2013-03-31 07:53:00,26.0,26.0,-100.00,NW,320,0.0,0.0,100,0.00,,,0.05,0.000000,,2013-03-31 15:53:00,
2013-03-31 08:13:00,25.0,25.0,-100.00,North,354,1.0,4.0,100,0.00,,,0.05,3.000000,,2013-03-31 16:13:00,
2013-03-31 08:22:00,25.0,25.0,-100.00,North,354,1.0,4.0,100,0.00,,,0.05,3.000000,,2013-03-31 16:22:00,
2013-03-31 08:33:00,25.0,25.0,-100.00,North,354,1.0,4.0,100,0.00,,,0.05,3.000000,,2013-03-31 16:33:00,
2013-03-31 08:42:00,25.0,25.0,-100.00,North,354,1.0,4.0,100,0.00,,,0.05,3.000000,,2013-03-31 16:42:00,
2013-03-31 08:52:00,25.0,25.0,-100.00,North,354,1.0,4.0,100,0.00,,,0.05,3.000000,,2013-03-31 16:52:00,
2013-03-31 09:12:00,25.0,25.0,-100.00,NNE,27,0.0,4.0,100,0.00,,,0.05,30.000000,,2013-03-31 17:12:00,
2013-03-31 09:22:00,25.0,25.0,-100.00,NNE,27,0.0,4.0,100,0.00,,,0.05,30.000000,,2013-03-31 17:22:00,
2013-03-31 09:32:00,25.0,25.0,-100.00,NNE,27,0.0,4.0,100,0.00,,,0.05,30.000000,,2013-03-31 17:32:00,
2013-03-31 09:42:00,25.0,25.0,-100.00,NNE,27,0.0,4.0,100,0.00,,,0.05,30.000000,,2013-03-31 17:42:00,
2013-03-31 09:51:00,25.0,25.0,-100.00,NNE,27,0.0,4.0,100,0.00,,,0.05,30.000000,,2013-03-31 17:51:00,
2013-03-31 10:22:00,31.0,31.0,-100.00,SE,143,0.0,1.0,98,0.00,,,0.05,109.000000,,2013-03-31 18:22:00,
2013-03-31 10:32:00,31.0,31.0,-100.00,SE,143,0.0,1.0,98,0.00,,,0.05,109.000000,,2013-03-31 18:32:00,
2013-03-31 10:42:00,31.0,31.0,-100.00,SE,143,0.0,1.0,98,0.00,,,0.05,109.000000,,2013-03-31 18:42:00,
2013-03-31 10:52:00,31.0,31.0,-100.00,SE,143,0.0,1.0,98,0.00,,,0.05,109.000000,,2013-03-31 18:52:00,
2013-03-31 11:12:00,42.0,33.0,-100.00,North,356,1.0,4.0,69,0.00,,,0.04,282.000000,,2013-03-31 19:12:00,
2013-03-31 11:22:00,42.0,33.0,-100.00,North,356,1.0,4.0,69,0.00,,,0.04,282.000000,,2013-03-31 19:22:00,
2013-03-31 12:12:00,49.0,30.0,-100.00,SSE,165,1.0,4.0,47,0.00,,,0.02,505.000000,,2013-03-31 20:12:00,
2013-03-31 12:22:00,49.0,30.0,-100.00,SSE,165,1.0,4.0,47,0.00,,,0.02,505.000000,,2013-03-31 20:22:00,
2013-03-31 13:12:00,48.0,27.0,-100.00,NW,321,2.0,7.0,44,-99.99,,,0.00,610.000000,,2013-03-31 21:12:00,
2013-03-31 13:22:00,48.0,27.0,-100.00,NW,321,2.0,7.0,44,-99.99,,,0.00,610.000000,,2013-03-31 21:22:00,
2013-03-31 14:13:00,49.0,31.0,-100.00,NNW,338,2.0,9.0,49,-99.99,,,0.00,671.000000,,2013-03-31 22:13:00,
2013-03-31 14:23:00,49.0,31.0,-100.00,NNW,338,2.0,9.0,49,-99.99,,,0.00,671.000000,,2013-03-31 22:23:00,
2013-03-31 14:42:00,49.0,31.0,-100.00,NNW,338,2.0,9.0,49,-99.99,,,0.00,671.000000,,2013-03-31 22:42:00,
2013-03-31 14:52:00,49.0,31.0,-100.00,NNW,338,2.0,9.0,49,-99.99,,,0.00,671.000000,,2013-03-31 22:52:00,
2013-03-31 15:22:00,49.0,28.0,-100.00,NNW,343,3.0,7.0,44,0.00,,,0.00,558.000000,,2013-03-31 23:22:00,
2013-03-31 15:32:00,49.0,28.0,-100.00,NNW,343,3.0,7.0,44,0.00,,,0.00,558.000000,,2013-03-31 23:32:00,
2013-03-31 15:42:00,49.0,28.0,-100.00,NNW,343,3.0,7.0,44,0.00,,,0.00,558.000000,,2013-03-31 23:42:00,
2013-03-31 15:52:00,49.0,28.0,-100.00,NNW,343,3.0,7.0,44,0.00,,,0.00,558.000000,,2013-03-31 23:52:00,
2013-03-31 16:12:00,51.0,28.0,-100.00,NNW,348,3.0,10.0,41,0.00,,,0.00,612.000000,,2013-04-01 00:12:00,
2013-03-31 16:22:00,51.0,28.0,-100.00,NNW,348,3.0,10.0,41,0.00,,,0.00,612.000000,,2013-04-01 00:22:00,
2013-03-31 17:12:00,43.0,27.0,-100.00,NNW,348,3.0,11.0,53,-99.99,,,0.00,150.000000,,2013-04-01 01:12:00,
2013-03-31 17:22:00,43.0,27.0,-100.00,NNW,348,3.0,11.0,53,-99.99,,,0.00,150.000000,,2013-04-01 01:22:00,
2013-03-31 17:32:00,43.0,27.0,-100.00,NNW,348,3.0,11.0,53,-99.99,,,0.00,150.000000,,2013-04-01 01:32:00,
2013-03-31 17:42:00,43.0,27.0,-100.00,NNW,348,3.0,11.0,53,-99.99,,,0.00,150.000000,,2013-04-01 01:42:00,
2013-03-31 17:52:00,43.0,27.0,-100.00,NNW,348,3.0,11.0,53,-99.99,,,0.00,150.000000,,2013-04-01 01:52:00,
2013-03-31 18:12:00,38.0,25.0,-100.00,East,99,4.0,8.0,60,0.00,,,0.00,230.000000,,2013-04-01 02:12:00,
2013-03-31 18:22:00,38.0,25.0,-100.00,East,99,4.0,8.0,60,0.00,,,0.00,230.000000,,2013-04-01 02:22:00,
2013-03-31 18:32:00,38.0,25.0,-100.00,East,99,4.0,8.0,60,0.00,,,0.00,230.000000,,2013-04-01 02:32:00,
2013-03-31 18:42:00,38.0,25.0,-100.00,East,99,4.0,8.0,60,0.00,,,0.00,230.000000,,2013-04-01 02:42:00,
2013-03-31 18:52:00,38.0,25.0,-100.00,East,99,4.0,8.0,60,0.00,,,0.00,230.000000,,2013-04-01 02:52:00,
2013-03-31 19:22:00,39.0,30.0,-100.00,South,186,1.0,6.0,70,0.00,,,0.00,120.000000,,2013-04-01 03:22:00,
2013-03-31 19:33:00,39.0,30.0,-100.00,South,186,1.0,6.0,70,0.00,,,0.00,120.000000,,2013-04-01 03:33:00,
2013-03-31 19:43:00,39.0,30.0,-100.00,South,186,1.0,6.0,70,0.00,,,0.00,120.000000,,2013-04-01 03:43:00,
2013-03-31 19:52:00,39.0,30.0,-100.00,South,186,1.0,6.0,70,0.00,,,0.00,120.000000,,2013-04-01 03:52:00,
2013-03-31 20:23:00,38.0,29.0,-100.00,SSW,200,1.0,4.0,71,0.00,,,0.00,67.000000,,2013-04-01 04:23:00,
2013-03-31 20:32:00,38.0,29.0,-100.00,SSW,200,1.0,4.0,71,0.00,,,0.00,67.000000,,2013-04-01 04:32:00,
2013-03-31 20:43:00,38.0,29.0,-100.00,SSW,200,1.0,4.0,71,0.00,,,0.00,67.000000,,2013-04-01 04:43:00,
2013-03-31 20:52:00,38.0,29.0,-100.00,SSW,200,1.0,4.0,71,0.00,,,0.00,67.000000,,2013-04-01 04:52:00,
2013-03-31 21:12:00,34.0,28.0,-100.00,North,6,0.0,2.0,78,0.00,,,0.00,13.000000,,2013-04-01 05:12:00,
2013-03-31 21:22:00,34.0,28.0,-100.00,North,6,0.0,2.0,78,0.00,,,0.00,13.000000,,2013-04-01 05:22:00,
2013-03-31 21:32:00,34.0,28.0,-100.00,North,6,0.0,2.0,78,0.00,,,0.00,13.000000,,2013-04-01 05:32:00,
2013-03-31 21:42:00,34.0,28.0,-100.00,North,6,0.0,2.0,78,0.00,,,0.00,13.000000,,2013-04-01 05:42:00,
2013-03-31 21:52:00,34.0,28.0,-100.00,North,6,0.0,2.0,78,0.00,,,0.00,13.000000,,2013-04-01 05:52:00,
2013-03-31 22:12:00,31.0,28.0,-100.00,WNW,297,0.0,0.0,87,0.00,,,0.00,0.000000,,2013-04-01 06:12:00,
2013-03-31 22:22:00,31.0,28.0,-100.00,WNW,297,0.0,0.0,87,0.00,,,0.00,0.000000,,2013-04-01 06:22:00,
2013-03-31 22:33:00,31.0,28.0,-100.00,WNW,297,0.0,0.0,87,0.00,,,0.00,0.000000,,2013-04-01 06:33:00,
2013-03-31 22:42:00,31.0,28.0,-100.00,WNW,297,0.0,0.0,87,0.00,,,0.00,0.000000,,2013-04-01 06:42:00,
2013-03-31 22:52:00,31.0,28.0,-100.00,WNW,297,0.0,0.0,87,0.00,,,0.00,0.000000,,2013-04-01 06:52:00,
2013-03-31 23:12:00,29.0,27.0,-100.00,North,11,0.0,0.0,94,0.00,,,0.00,0.000000,,2013-04-01 07:12:00,
2013-03-31 23:22:00,29.0,27.0,-100.00,North,11,0.0,0.0,94,0.00,,,0.00,0.000000,,2013-04-01 07:22:00,
2013-03-31 23:32:00,29.0,27.0,-100.00,North,11,0.0,0.0,94,0.00,,,0.00,0.000000,,2013-04-01 07:32:00,
2013-03-31 23:42:00,29.0,27.0,-100.00,North,11,0.0,0.0,94,0.00,,,0.00,0.000000,,2013-04-01 07:42:00,
2013-03-31 23:52:00,29.0,27.0,-100.00,North,11,0.0,0.0,94,0.00,,,0.00,0.000000,,2013-04-01 07:52:00,